sensor_id;sensor_type;location;lat;lon;timestamp;P1;durP1;ratioP1;P2;durP2;ratioP2
3901;SDS011;1966;49.908;9.156;2022-12-07T00:03:03;12.90;;;8.17;;
3901;SDS011;1966;49.908;9.156;2022-12-07T00:08:02;14.50;;;8.20;;
3901;SDS011;1966;49.908;9.156;2022-12-07T00:13:03;12.03;;;7.57;;
3901;SDS011;1966;49.908;9.156;2022-12-07T00:18:02;12.83;;;7.50;;
3901;SDS011;1966;49.908;9.156;2022-12-07T00:23:01;12.63;;;8.10;;
3901;SDS011;1966;49.908;9.156;2022-12-07T00:28:02;12.20;;;8.40;;
3901;SDS011;1966;49.908;9.156;2022-12-07T00:33:02;11.57;;;7.80;;
3901;SDS011;1966;49.908;9.156;2022-12-07T00:38:01;12.10;;;7.37;;
3901;SDS011;1966;49.908;9.156;2022-12-07T00:43:00;11.40;;;7.73;;
3901;SDS011;1966;49.908;9.156;2022-12-07T00:48:01;14.43;;;9.13;;
3901;SDS011;1966;49.908;9.156;2022-12-07T00:53:00;12.27;;;8.00;;
3901;SDS011;1966;49.908;9.156;2022-12-07T00:58:00;14.20;;;7.80;;
3901;SDS011;1966;49.908;9.156;2022-12-07T01:02:59;11.83;;;7.60;;
3901;SDS011;1966;49.908;9.156;2022-12-07T01:08:00;13.80;;;8.57;;
3901;SDS011;1966;49.908;9.156;2022-12-07T01:12:59;11.63;;;7.60;;
3901;SDS011;1966;49.908;9.156;2022-12-07T01:17:58;11.63;;;8.00;;
3901;SDS011;1966;49.908;9.156;2022-12-07T01:22:59;12.93;;;8.70;;
3901;SDS011;1966;49.908;9.156;2022-12-07T01:27:58;13.83;;;9.17;;
3901;SDS011;1966;49.908;9.156;2022-12-07T01:32:58;17.13;;;7.30;;
3901;SDS011;1966;49.908;9.156;2022-12-07T01:37:57;11.73;;;8.40;;
3901;SDS011;1966;49.908;9.156;2022-12-07T01:42:58;16.07;;;9.30;;
3901;SDS011;1966;49.908;9.156;2022-12-07T01:47:57;17.50;;;9.77;;
3901;SDS011;1966;49.908;9.156;2022-12-07T01:52:57;17.10;;;9.80;;
3901;SDS011;1966;49.908;9.156;2022-12-07T01:57:59;19.60;;;11.07;;
3901;SDS011;1966;49.908;9.156;2022-12-07T02:03:00;17.10;;;9.60;;
3901;SDS011;1966;49.908;9.156;2022-12-07T02:13:39;16.90;;;10.03;;
3901;SDS011;1966;49.908;9.156;2022-12-07T02:18:44;19.87;;;10.97;;
3901;SDS011;1966;49.908;9.156;2022-12-07T02:23:53;14.63;;;9.77;;
3901;SDS011;1966;49.908;9.156;2022-12-07T02:29:05;19.70;;;10.63;;
3901;SDS011;1966;49.908;9.156;2022-12-07T02:34:07;16.70;;;10.37;;
3901;SDS011;1966;49.908;9.156;2022-12-07T02:39:09;18.07;;;9.83;;
3901;SDS011;1966;49.908;9.156;2022-12-07T02:44:12;24.87;;;11.40;;
3901;SDS011;1966;49.908;9.156;2022-12-07T02:49:12;24.20;;;12.17;;
3901;SDS011;1966;49.908;9.156;2022-12-07T02:54:12;15.70;;;10.07;;
3901;SDS011;1966;49.908;9.156;2022-12-07T02:59:15;17.47;;;10.37;;
3901;SDS011;1966;49.908;9.156;2022-12-07T03:04:19;19.37;;;10.80;;
3901;SDS011;1966;49.908;9.156;2022-12-07T03:09:24;16.57;;;10.40;;
3901;SDS011;1966;49.908;9.156;2022-12-07T03:14:29;19.57;;;11.50;;
3901;SDS011;1966;49.908;9.156;2022-12-07T03:19:29;19.37;;;11.07;;
3901;SDS011;1966;49.908;9.156;2022-12-07T03:24:34;17.17;;;10.13;;
3901;SDS011;1966;49.908;9.156;2022-12-07T03:29:36;17.03;;;10.33;;
3901;SDS011;1966;49.908;9.156;2022-12-07T03:34:39;22.00;;;11.10;;
3901;SDS011;1966;49.908;9.156;2022-12-07T03:39:41;20.50;;;10.80;;
3901;SDS011;1966;49.908;9.156;2022-12-07T03:44:44;16.77;;;10.33;;
3901;SDS011;1966;49.908;9.156;2022-12-07T03:49:44;16.57;;;9.70;;
3901;SDS011;1966;49.908;9.156;2022-12-07T03:54:45;20.00;;;10.70;;
3901;SDS011;1966;49.908;9.156;2022-12-07T03:59:48;17.73;;;9.70;;
3901;SDS011;1966;49.908;9.156;2022-12-07T04:04:47;18.47;;;10.30;;
3901;SDS011;1966;49.908;9.156;2022-12-07T04:09:47;17.53;;;10.43;;
3901;SDS011;1966;49.908;9.156;2022-12-07T04:14:47;16.70;;;10.07;;
3901;SDS011;1966;49.908;9.156;2022-12-07T04:19:47;19.37;;;11.03;;
3901;SDS011;1966;49.908;9.156;2022-12-07T04:24:46;16.63;;;10.60;;
3901;SDS011;1966;49.908;9.156;2022-12-07T04:29:45;17.03;;;9.70;;
3901;SDS011;1966;49.908;9.156;2022-12-07T04:34:46;19.20;;;10.73;;
3901;SDS011;1966;49.908;9.156;2022-12-07T04:39:45;20.10;;;10.83;;
3901;SDS011;1966;49.908;9.156;2022-12-07T04:44:44;19.37;;;11.20;;
3901;SDS011;1966;49.908;9.156;2022-12-07T04:49:45;19.30;;;11.10;;
3901;SDS011;1966;49.908;9.156;2022-12-07T04:54:44;16.73;;;10.20;;
3901;SDS011;1966;49.908;9.156;2022-12-07T04:59:44;15.20;;;9.00;;
3901;SDS011;1966;49.908;9.156;2022-12-07T05:04:43;15.60;;;9.40;;
3901;SDS011;1966;49.908;9.156;2022-12-07T05:09:44;16.03;;;9.60;;
3901;SDS011;1966;49.908;9.156;2022-12-07T05:14:43;14.60;;;9.23;;
3901;SDS011;1966;49.908;9.156;2022-12-07T05:19:42;17.03;;;9.10;;
3901;SDS011;1966;49.908;9.156;2022-12-07T05:24:43;16.77;;;9.37;;
3901;SDS011;1966;49.908;9.156;2022-12-07T05:29:42;20.17;;;9.87;;
3901;SDS011;1966;49.908;9.156;2022-12-07T05:34:42;18.17;;;9.20;;
3901;SDS011;1966;49.908;9.156;2022-12-07T05:39:41;17.97;;;9.60;;
3901;SDS011;1966;49.908;9.156;2022-12-07T05:44:43;15.70;;;9.87;;
3901;SDS011;1966;49.908;9.156;2022-12-07T05:49:42;16.30;;;9.00;;
3901;SDS011;1966;49.908;9.156;2022-12-07T05:54:41;14.17;;;8.37;;
3901;SDS011;1966;49.908;9.156;2022-12-07T05:59:42;16.40;;;9.23;;
3901;SDS011;1966;49.908;9.156;2022-12-07T06:04:42;11.93;;;7.80;;
3901;SDS011;1966;49.908;9.156;2022-12-07T06:09:42;13.73;;;8.70;;
3901;SDS011;1966;49.908;9.156;2022-12-07T06:14:43;13.47;;;8.47;;
3901;SDS011;1966;49.908;9.156;2022-12-07T06:19:43;14.80;;;9.00;;
3901;SDS011;1966;49.908;9.156;2022-12-07T06:24:42;14.20;;;8.70;;
3901;SDS011;1966;49.908;9.156;2022-12-07T06:29:43;13.27;;;7.90;;
3901;SDS011;1966;49.908;9.156;2022-12-07T06:34:42;16.67;;;10.43;;
3901;SDS011;1966;49.908;9.156;2022-12-07T06:39:41;14.90;;;9.83;;
3901;SDS011;1966;49.908;9.156;2022-12-07T06:44:42;16.13;;;8.73;;
3901;SDS011;1966;49.908;9.156;2022-12-07T06:49:41;22.90;;;10.80;;
3901;SDS011;1966;49.908;9.156;2022-12-07T06:54:41;18.70;;;10.53;;
3901;SDS011;1966;49.908;9.156;2022-12-07T06:59:40;13.23;;;8.60;;
3901;SDS011;1966;49.908;9.156;2022-12-07T07:04:41;13.20;;;8.63;;
3901;SDS011;1966;49.908;9.156;2022-12-07T07:09:40;11.30;;;7.83;;
3901;SDS011;1966;49.908;9.156;2022-12-07T07:14:39;14.47;;;8.60;;
3901;SDS011;1966;49.908;9.156;2022-12-07T07:19:41;12.70;;;8.10;;
3901;SDS011;1966;49.908;9.156;2022-12-07T07:24:40;14.33;;;9.10;;
3901;SDS011;1966;49.908;9.156;2022-12-07T07:29:39;16.17;;;9.97;;
3901;SDS011;1966;49.908;9.156;2022-12-07T07:34:40;12.30;;;8.60;;
3901;SDS011;1966;49.908;9.156;2022-12-07T07:39:39;13.10;;;8.73;;
3901;SDS011;1966;49.908;9.156;2022-12-07T07:44:39;14.00;;;8.90;;
3901;SDS011;1966;49.908;9.156;2022-12-07T07:49:38;16.33;;;8.20;;
3901;SDS011;1966;49.908;9.156;2022-12-07T07:54:39;12.00;;;8.50;;
3901;SDS011;1966;49.908;9.156;2022-12-07T07:59:38;12.90;;;8.30;;
3901;SDS011;1966;49.908;9.156;2022-12-07T08:04:38;13.70;;;8.47;;
3901;SDS011;1966;49.908;9.156;2022-12-07T08:09:37;12.20;;;7.67;;
3901;SDS011;1966;49.908;9.156;2022-12-07T08:14:38;10.10;;;7.00;;
3901;SDS011;1966;49.908;9.156;2022-12-07T08:19:37;13.33;;;8.20;;
3901;SDS011;1966;49.908;9.156;2022-12-07T08:24:36;12.20;;;8.87;;
3901;SDS011;1966;49.908;9.156;2022-12-07T08:29:35;13.30;;;8.23;;
3901;SDS011;1966;49.908;9.156;2022-12-07T08:34:36;10.90;;;7.90;;
3901;SDS011;1966;49.908;9.156;2022-12-07T08:39:35;12.93;;;8.03;;
3901;SDS011;1966;49.908;9.156;2022-12-07T08:44:35;14.30;;;9.40;;
3901;SDS011;1966;49.908;9.156;2022-12-07T08:49:37;12.63;;;8.33;;
3901;SDS011;1966;49.908;9.156;2022-12-07T08:54:38;11.73;;;8.30;;
3901;SDS011;1966;49.908;9.156;2022-12-07T08:59:38;11.63;;;7.93;;
3901;SDS011;1966;49.908;9.156;2022-12-07T09:04:39;10.30;;;7.40;;
3901;SDS011;1966;49.908;9.156;2022-12-07T09:09:38;12.43;;;8.47;;
3901;SDS011;1966;49.908;9.156;2022-12-07T09:14:38;11.90;;;7.80;;
3901;SDS011;1966;49.908;9.156;2022-12-07T09:19:37;9.90;;;7.20;;
3901;SDS011;1966;49.908;9.156;2022-12-07T09:24:38;10.57;;;7.37;;
3901;SDS011;1966;49.908;9.156;2022-12-07T09:29:37;10.20;;;7.27;;
3901;SDS011;1966;49.908;9.156;2022-12-07T09:34:36;14.17;;;7.93;;
3901;SDS011;1966;49.908;9.156;2022-12-07T09:39:38;10.30;;;6.53;;
3901;SDS011;1966;49.908;9.156;2022-12-07T09:44:39;13.60;;;7.23;;
3901;SDS011;1966;49.908;9.156;2022-12-07T09:49:39;10.63;;;6.90;;
3901;SDS011;1966;49.908;9.156;2022-12-07T09:54:41;11.20;;;7.50;;
3901;SDS011;1966;49.908;9.156;2022-12-07T09:59:42;8.40;;;6.30;;
3901;SDS011;1966;49.908;9.156;2022-12-07T10:04:41;9.03;;;6.30;;
3901;SDS011;1966;49.908;9.156;2022-12-07T10:09:43;9.57;;;7.00;;
3901;SDS011;1966;49.908;9.156;2022-12-07T10:14:52;12.37;;;7.10;;
3901;SDS011;1966;49.908;9.156;2022-12-07T10:19:52;10.73;;;6.23;;
3901;SDS011;1966;49.908;9.156;2022-12-07T10:25:08;11.87;;;7.50;;
3901;SDS011;1966;49.908;9.156;2022-12-07T10:30:20;8.90;;;6.67;;
3901;SDS011;1966;49.908;9.156;2022-12-07T10:35:21;10.53;;;6.37;;
3901;SDS011;1966;49.908;9.156;2022-12-07T10:40:27;9.30;;;6.60;;
3901;SDS011;1966;49.908;9.156;2022-12-07T10:45:32;10.70;;;7.40;;
3901;SDS011;1966;49.908;9.156;2022-12-07T10:50:39;10.83;;;7.37;;
3901;SDS011;1966;49.908;9.156;2022-12-07T10:55:48;9.67;;;6.90;;
3901;SDS011;1966;49.908;9.156;2022-12-07T11:00:54;12.60;;;6.83;;
3901;SDS011;1966;49.908;9.156;2022-12-07T11:05:56;10.60;;;7.03;;
3901;SDS011;1966;49.908;9.156;2022-12-07T11:11:02;10.00;;;6.40;;
3901;SDS011;1966;49.908;9.156;2022-12-07T11:16:09;12.50;;;7.70;;
3901;SDS011;1966;49.908;9.156;2022-12-07T11:21:17;10.00;;;7.17;;
3901;SDS011;1966;49.908;9.156;2022-12-07T11:26:24;9.13;;;5.57;;
3901;SDS011;1966;49.908;9.156;2022-12-07T11:31:28;8.53;;;6.10;;
3901;SDS011;1966;49.908;9.156;2022-12-07T11:36:31;11.07;;;7.00;;
3901;SDS011;1966;49.908;9.156;2022-12-07T11:41:34;11.50;;;7.27;;
3901;SDS011;1966;49.908;9.156;2022-12-07T11:46:42;11.13;;;6.70;;
3901;SDS011;1966;49.908;9.156;2022-12-07T11:51:44;12.00;;;7.87;;
3901;SDS011;1966;49.908;9.156;2022-12-07T11:56:47;9.13;;;6.80;;
3901;SDS011;1966;49.908;9.156;2022-12-07T12:01:50;13.63;;;7.60;;
3901;SDS011;1966;49.908;9.156;2022-12-07T12:06:50;15.43;;;8.23;;
3901;SDS011;1966;49.908;9.156;2022-12-07T12:11:56;12.10;;;7.97;;
3901;SDS011;1966;49.908;9.156;2022-12-07T12:17:08;12.30;;;7.60;;
3901;SDS011;1966;49.908;9.156;2022-12-07T12:22:15;12.90;;;7.37;;
3901;SDS011;1966;49.908;9.156;2022-12-07T12:27:19;9.67;;;6.50;;
3901;SDS011;1966;49.908;9.156;2022-12-07T12:32:20;9.80;;;6.60;;
3901;SDS011;1966;49.908;9.156;2022-12-07T12:37:39;14.13;;;6.70;;
3901;SDS011;1966;49.908;9.156;2022-12-07T12:42:44;7.63;;;6.10;;
3901;SDS011;1966;49.908;9.156;2022-12-07T12:53:12;7.43;;;5.97;;
3901;SDS011;1966;49.908;9.156;2022-12-07T13:03:35;7.77;;;5.13;;
3901;SDS011;1966;49.908;9.156;2022-12-07T13:08:34;7.23;;;5.20;;
3901;SDS011;1966;49.908;9.156;2022-12-07T13:13:35;9.10;;;5.37;;
3901;SDS011;1966;49.908;9.156;2022-12-07T13:18:36;7.57;;;5.43;;
3901;SDS011;1966;49.908;9.156;2022-12-07T13:23:36;7.43;;;5.60;;
3901;SDS011;1966;49.908;9.156;2022-12-07T13:28:36;10.00;;;5.53;;
3901;SDS011;1966;49.908;9.156;2022-12-07T13:33:38;11.73;;;6.10;;
3901;SDS011;1966;49.908;9.156;2022-12-07T13:38:38;9.90;;;5.70;;
3901;SDS011;1966;49.908;9.156;2022-12-07T13:43:42;9.97;;;6.03;;
3901;SDS011;1966;49.908;9.156;2022-12-07T13:48:43;8.57;;;5.43;;
3901;SDS011;1966;49.908;9.156;2022-12-07T13:53:45;10.40;;;4.93;;
3901;SDS011;1966;49.908;9.156;2022-12-07T13:58:45;8.50;;;5.67;;
3901;SDS011;1966;49.908;9.156;2022-12-07T14:03:46;7.67;;;5.60;;
3901;SDS011;1966;49.908;9.156;2022-12-07T14:08:45;6.60;;;5.00;;
3901;SDS011;1966;49.908;9.156;2022-12-07T14:13:50;5.10;;;4.47;;
3901;SDS011;1966;49.908;9.156;2022-12-07T14:18:52;4.93;;;4.03;;
3901;SDS011;1966;49.908;9.156;2022-12-07T14:29:22;10.80;;;5.83;;
3901;SDS011;1966;49.908;9.156;2022-12-07T14:34:23;6.63;;;5.03;;
3901;SDS011;1966;49.908;9.156;2022-12-07T14:39:22;5.60;;;4.77;;
3901;SDS011;1966;49.908;9.156;2022-12-07T14:44:22;6.50;;;5.10;;
3901;SDS011;1966;49.908;9.156;2022-12-07T14:49:23;7.67;;;4.97;;
3901;SDS011;1966;49.908;9.156;2022-12-07T14:54:22;9.70;;;5.60;;
3901;SDS011;1966;49.908;9.156;2022-12-07T14:59:23;8.40;;;4.30;;
3901;SDS011;1966;49.908;9.156;2022-12-07T15:04:24;5.73;;;4.17;;
3901;SDS011;1966;49.908;9.156;2022-12-07T15:09:24;2.73;;;2.53;;
3901;SDS011;1966;49.908;9.156;2022-12-07T15:14:23;4.93;;;3.20;;
3901;SDS011;1966;49.908;9.156;2022-12-07T15:19:23;4.80;;;3.07;;
3901;SDS011;1966;49.908;9.156;2022-12-07T15:24:25;6.00;;;3.00;;
3901;SDS011;1966;49.908;9.156;2022-12-07T15:29:25;3.90;;;3.20;;
3901;SDS011;1966;49.908;9.156;2022-12-07T15:34:24;6.27;;;3.23;;
3901;SDS011;1966;49.908;9.156;2022-12-07T15:39:25;5.80;;;4.10;;
3901;SDS011;1966;49.908;9.156;2022-12-07T15:44:25;8.60;;;4.73;;
3901;SDS011;1966;49.908;9.156;2022-12-07T15:49:42;7.40;;;3.60;;
3901;SDS011;1966;49.908;9.156;2022-12-07T15:54:43;8.90;;;5.83;;
3901;SDS011;1966;49.908;9.156;2022-12-07T15:59:42;7.63;;;4.40;;
3901;SDS011;1966;49.908;9.156;2022-12-07T16:04:41;7.70;;;5.30;;
3901;SDS011;1966;49.908;9.156;2022-12-07T16:09:42;7.50;;;5.90;;
3901;SDS011;1966;49.908;9.156;2022-12-07T16:14:41;8.23;;;6.07;;
3901;SDS011;1966;49.908;9.156;2022-12-07T16:19:41;10.13;;;5.33;;
3901;SDS011;1966;49.908;9.156;2022-12-07T16:24:40;9.27;;;6.40;;
3901;SDS011;1966;49.908;9.156;2022-12-07T16:29:41;9.53;;;6.30;;
3901;SDS011;1966;49.908;9.156;2022-12-07T16:34:40;14.67;;;9.60;;
3901;SDS011;1966;49.908;9.156;2022-12-07T16:39:39;9.17;;;6.00;;
3901;SDS011;1966;49.908;9.156;2022-12-07T16:44:40;13.60;;;5.80;;
3901;SDS011;1966;49.908;9.156;2022-12-07T16:49:39;8.43;;;4.97;;
3901;SDS011;1966;49.908;9.156;2022-12-07T16:54:39;9.93;;;5.47;;
3901;SDS011;1966;49.908;9.156;2022-12-07T16:59:38;7.90;;;5.53;;
3901;SDS011;1966;49.908;9.156;2022-12-07T17:04:39;10.60;;;6.43;;
3901;SDS011;1966;49.908;9.156;2022-12-07T17:09:40;9.00;;;5.70;;
3901;SDS011;1966;49.908;9.156;2022-12-07T17:14:39;9.60;;;6.23;;
3901;SDS011;1966;49.908;9.156;2022-12-07T17:19:58;9.47;;;5.60;;
3901;SDS011;1966;49.908;9.156;2022-12-07T17:24:57;5.80;;;4.50;;
3901;SDS011;1966;49.908;9.156;2022-12-07T17:29:56;7.47;;;4.47;;
3901;SDS011;1966;49.908;9.156;2022-12-07T17:34:55;11.17;;;5.00;;
3901;SDS011;1966;49.908;9.156;2022-12-07T17:39:56;6.30;;;5.33;;
3901;SDS011;1966;49.908;9.156;2022-12-07T17:44:55;7.60;;;4.33;;
3901;SDS011;1966;49.908;9.156;2022-12-07T17:49:55;5.77;;;4.40;;
3901;SDS011;1966;49.908;9.156;2022-12-07T17:54:54;8.90;;;5.37;;
3901;SDS011;1966;49.908;9.156;2022-12-07T17:59:55;8.90;;;5.00;;
3901;SDS011;1966;49.908;9.156;2022-12-07T18:04:54;6.90;;;4.90;;
3901;SDS011;1966;49.908;9.156;2022-12-07T18:09:53;6.00;;;5.00;;
3901;SDS011;1966;49.908;9.156;2022-12-07T18:14:54;8.40;;;6.30;;
3901;SDS011;1966;49.908;9.156;2022-12-07T18:19:53;12.87;;;7.67;;
3901;SDS011;1966;49.908;9.156;2022-12-07T18:24:53;11.80;;;6.80;;
3901;SDS011;1966;49.908;9.156;2022-12-07T18:29:52;10.73;;;7.10;;
3901;SDS011;1966;49.908;9.156;2022-12-07T18:34:54;9.93;;;7.43;;
3901;SDS011;1966;49.908;9.156;2022-12-07T18:39:53;10.10;;;7.33;;
3901;SDS011;1966;49.908;9.156;2022-12-07T18:44:54;9.70;;;6.50;;
3901;SDS011;1966;49.908;9.156;2022-12-07T18:49:54;10.70;;;7.27;;
3901;SDS011;1966;49.908;9.156;2022-12-07T18:54:54;9.50;;;6.70;;
3901;SDS011;1966;49.908;9.156;2022-12-07T18:59:53;12.57;;;7.37;;
3901;SDS011;1966;49.908;9.156;2022-12-07T19:04:52;11.53;;;7.70;;
3901;SDS011;1966;49.908;9.156;2022-12-07T19:09:53;10.97;;;7.40;;
3901;SDS011;1966;49.908;9.156;2022-12-07T19:14:52;14.07;;;9.23;;
3901;SDS011;1966;49.908;9.156;2022-12-07T19:19:53;9.90;;;7.80;;
3901;SDS011;1966;49.908;9.156;2022-12-07T19:24:54;16.50;;;9.40;;
3901;SDS011;1966;49.908;9.156;2022-12-07T19:29:54;22.20;;;12.07;;
3901;SDS011;1966;49.908;9.156;2022-12-07T19:34:53;26.60;;;12.83;;
3901;SDS011;1966;49.908;9.156;2022-12-07T19:39:54;14.37;;;9.50;;
3901;SDS011;1966;49.908;9.156;2022-12-07T19:44:53;12.40;;;8.90;;
3901;SDS011;1966;49.908;9.156;2022-12-07T19:49:53;25.70;;;14.67;;
3901;SDS011;1966;49.908;9.156;2022-12-07T19:54:52;22.37;;;12.20;;
3901;SDS011;1966;49.908;9.156;2022-12-07T19:59:53;20.00;;;13.80;;
3901;SDS011;1966;49.908;9.156;2022-12-07T20:04:52;15.13;;;10.90;;
3901;SDS011;1966;49.908;9.156;2022-12-07T20:09:52;16.20;;;10.07;;
3901;SDS011;1966;49.908;9.156;2022-12-07T20:14:51;16.80;;;9.80;;
3901;SDS011;1966;49.908;9.156;2022-12-07T20:19:52;14.40;;;9.83;;
3901;SDS011;1966;49.908;9.156;2022-12-07T20:24:51;17.03;;;9.97;;
3901;SDS011;1966;49.908;9.156;2022-12-07T20:29:50;15.97;;;10.20;;
3901;SDS011;1966;49.908;9.156;2022-12-07T20:34:49;18.67;;;11.33;;
3901;SDS011;1966;49.908;9.156;2022-12-07T20:39:51;16.37;;;10.40;;
3901;SDS011;1966;49.908;9.156;2022-12-07T20:44:52;14.40;;;9.50;;
3901;SDS011;1966;49.908;9.156;2022-12-07T20:49:52;16.10;;;10.17;;
3901;SDS011;1966;49.908;9.156;2022-12-07T20:54:52;17.23;;;10.70;;
3901;SDS011;1966;49.908;9.156;2022-12-07T20:59:52;17.90;;;10.37;;
3901;SDS011;1966;49.908;9.156;2022-12-07T21:04:51;15.80;;;11.13;;
3901;SDS011;1966;49.908;9.156;2022-12-07T21:09:50;16.77;;;10.57;;
3901;SDS011;1966;49.908;9.156;2022-12-07T21:14:51;16.80;;;10.70;;
3901;SDS011;1966;49.908;9.156;2022-12-07T21:19:50;17.07;;;10.60;;
3901;SDS011;1966;49.908;9.156;2022-12-07T21:24:49;15.13;;;10.03;;
3901;SDS011;1966;49.908;9.156;2022-12-07T21:29:50;15.57;;;10.03;;
3901;SDS011;1966;49.908;9.156;2022-12-07T21:34:49;15.17;;;9.47;;
3901;SDS011;1966;49.908;9.156;2022-12-07T21:39:49;14.90;;;10.47;;
3901;SDS011;1966;49.908;9.156;2022-12-07T21:44:48;13.40;;;9.93;;
3901;SDS011;1966;49.908;9.156;2022-12-07T21:49:49;16.50;;;10.50;;
3901;SDS011;1966;49.908;9.156;2022-12-07T21:54:48;18.13;;;10.77;;
3901;SDS011;1966;49.908;9.156;2022-12-07T21:59:47;14.87;;;10.23;;
3901;SDS011;1966;49.908;9.156;2022-12-07T22:04:48;15.60;;;10.50;;
3901;SDS011;1966;49.908;9.156;2022-12-07T22:09:47;15.53;;;10.33;;
3901;SDS011;1966;49.908;9.156;2022-12-07T22:14:47;14.60;;;10.10;;
3901;SDS011;1966;49.908;9.156;2022-12-07T22:20:06;19.03;;;11.00;;
3901;SDS011;1966;49.908;9.156;2022-12-07T22:25:06;18.23;;;11.77;;
3901;SDS011;1966;49.908;9.156;2022-12-07T22:30:07;15.90;;;11.00;;
3901;SDS011;1966;49.908;9.156;2022-12-07T22:35:08;16.10;;;10.77;;
3901;SDS011;1966;49.908;9.156;2022-12-07T22:40:07;16.83;;;11.33;;
3901;SDS011;1966;49.908;9.156;2022-12-07T22:45:07;15.53;;;11.03;;
3901;SDS011;1966;49.908;9.156;2022-12-07T22:50:09;20.70;;;12.60;;
3901;SDS011;1966;49.908;9.156;2022-12-07T22:55:08;15.27;;;10.50;;
3901;SDS011;1966;49.908;9.156;2022-12-07T23:00:09;17.47;;;10.77;;
3901;SDS011;1966;49.908;9.156;2022-12-07T23:05:10;15.03;;;10.30;;
3901;SDS011;1966;49.908;9.156;2022-12-07T23:10:10;17.33;;;10.33;;
3901;SDS011;1966;49.908;9.156;2022-12-07T23:15:10;15.83;;;10.77;;
3901;SDS011;1966;49.908;9.156;2022-12-07T23:20:11;16.17;;;10.30;;
3901;SDS011;1966;49.908;9.156;2022-12-07T23:25:10;18.37;;;11.50;;
3901;SDS011;1966;49.908;9.156;2022-12-07T23:30:09;15.30;;;9.90;;
3901;SDS011;1966;49.908;9.156;2022-12-07T23:35:10;16.70;;;10.63;;
3901;SDS011;1966;49.908;9.156;2022-12-07T23:40:09;17.20;;;10.47;;
3901;SDS011;1966;49.908;9.156;2022-12-07T23:45:09;23.53;;;11.07;;
3901;SDS011;1966;49.908;9.156;2022-12-07T23:50:10;18.87;;;10.77;;
3901;SDS011;1966;49.908;9.156;2022-12-07T23:55:09;17.30;;;10.03;;
